Latest Weather Observations for Essendon Airport

IDV60901

Issued at 4:21 pm EDT Wednesday 29 March 2017 (issued every 10 minutes, with the page automatically refreshed every 10 minutes)

About weather observations | Map of Melbourne area stations | Latest observations for Melbourne area | Other Formats
Station Details ID: 086038 Name: ESSENDON AIRPORT Lat: -37.73 Lon: 144.91 Height: 78.4 m
Data from the previous 72 hours. | See also: Recent months at Essendon Airport
Date/Time
EDT
Temp
°C
App
Temp
°C
Dew
Point
°C
Rel
Hum
%
Delta-T
°C
Wind Press
QNH
hPa
Press
MSL
hPa
Rain since
9am
mm
Dir  Spd
km/h
Gust
km/h
Spd
kts
Gust
kts
29/04:00pm 27.9 21.7 7.7 28 10.9 NW 30 43 16 23 1004.4 1004.2 0.0
29/03:30pm 27.3 20.7 7.7 29 10.5 N 32 46 17 25 1004.7 1004.5 0.0
29/03:02pm 27.1 19.9 7.5 29 10.5 NNW 35 54 19 29 1005.0 1004.8 0.0
29/03:00pm 26.9 19.3 7.4 29 10.5 NNW 37 54 20 29 1005.0 1004.8 0.0
29/02:35pm 27.0 20.6 8.4 31 10.1 N 32 50 17 27 1005.2 1005.0 0.0
29/02:30pm 26.6 19.5 8.1 31 10.0 N 35 50 19 27 1005.3 1005.1 0.0
29/02:00pm 25.8 19.3 8.8 34 9.3 N 33 46 18 25 1006.0 1005.8 0.0
29/01:30pm 26.2 19.8 8.7 33 9.5 N 32 44 17 24 1006.6 1006.4 0.0
29/01:00pm 25.8 20.0 7.9 32 9.6 NNW 28 43 15 23 1006.9 1006.7 0.0
29/12:40pm 25.8 19.3 8.3 33 9.4 NNW 32 50 17 27 1007.2 1007.0 0.0
29/12:30pm 25.1 18.4 8.1 34 9.1 NNW 33 46 18 25 1007.3 1007.1 0.0
29/12:00pm 25.3 20.4 10.0 38 8.5 N 26 37 14 20 1007.9 1007.7 0.0
29/11:30am 23.0 17.1 9.0 41 7.5 N 30 44 16 24 1008.1 1007.9 0.0
29/11:00am 22.8 17.2 8.9 41 7.5 N 28 37 15 20 1008.6 1008.4 0.0
29/10:30am 22.4 17.7 9.2 43 7.1 N 24 35 13 19 1008.9 1008.7 0.0
29/10:00am 20.6 15.9 9.2 48 6.1 N 24 37 13 20 1009.0 1008.8 0.0
29/09:30am 19.1 14.4 9.3 53 5.2 N 24 37 13 20 1009.0 1008.8 0.0
29/09:00am 18.4 13.4 9.5 56 4.7 N 26 35 14 19 1009.1 1008.9 0.0
29/08:30am 17.3 13.5 9.2 59 4.2 N 19 28 10 15 1009.2 1009.0 0.0
29/08:00am 16.3 12.4 9.3 63 3.6 N 20 28 11 15 1009.2 1009.0 0.0
29/07:30am 15.2 12.2 9.1 67 3.1 N 15 22 8 12 1009.2 1009.0 0.0
29/07:00am 15.0 12.0 9.4 69 2.9 N 15 19 8 10 1009.1 1008.9 0.0
29/06:30am 13.7 11.6 9.6 76 2.1 NNE 11 13 6 7 1009.3 1009.1 0.0
29/06:00am 13.3 11.1 9.4 77 2.0 NNE 11 13 6 7 1009.3 1009.1 0.0
29/05:30am 13.3 11.4 9.2 76 2.1 NNE 9 11 5 6 1009.3 1009.1 0.0
29/05:00am 13.7 11.9 8.1 69 2.8 SW 7 11 4 6 1009.2 1009.0 0.0
29/04:30am 15.4 11.9 8.9 65 3.3 N 17 19 9 10 1009.1 1008.9 0.0
29/04:00am 15.7 12.2 8.7 63 3.6 N 17 22 9 12 1009.3 1009.1 0.0
29/03:30am 15.7 12.1 8.4 62 3.7 N 17 20 9 11 1009.7 1009.5 0.0
29/03:00am 16.0 11.8 8.2 60 4.0 N 20 24 11 13 1010.1 1009.9 0.0
29/02:30am 16.0 11.9 8.5 61 3.8 N 20 24 11 13 1010.3 1010.1 0.0
29/02:00am 15.2 12.4 8.7 65 3.3 NNW 13 17 7 9 1010.5 1010.3 0.0
29/01:30am 14.9 13.2 8.4 65 3.3 NW 7 9 4 5 1010.7 1010.5 0.0
29/01:00am 15.5 13.5 8.5 63 3.6 NNW 9 11 5 6 1010.9 1010.7 0.0
29/12:30am 15.5 13.1 8.7 64 3.5 NNW 11 15 6 8 1010.9 1010.7 0.0
29/12:00am 16.1 13.4 9.1 63 3.6 N 13 15 7 8 1010.9 1010.7 0.0
 
Date/Time
EDT
Temp
°C
App
Temp
°C
Dew
Point
°C
Rel
Hum
%
Delta-T
°C
Wind Press
QNH
hPa
Press
MSL
hPa
Rain since
9am
mm
Dir  Spd
km/h
Gust
km/h
Spd
kts
Gust
kts
28/11:30pm 17.1 14.4 8.8 58 4.3 NNW 13 19 7 10 1011.3 1011.1 0.0
28/11:00pm 18.2 15.9 10.3 60 4.2 NW 13 19 7 10 1011.7 1011.5 0.0
28/10:30pm 17.5 16.0 10.6 64 3.7 WSW 9 11 5 6 1011.8 1011.6 0.0
28/10:00pm 18.6 17.6 10.4 59 4.4 N 6 9 3 5 1011.7 1011.5 0.0
28/09:30pm 19.5 17.6 10.5 56 4.9 NW 11 13 6 7 1011.8 1011.6 0.0
28/09:00pm 20.0 18.7 10.1 53 5.3 NE 7 11 4 6 1011.5 1011.3 0.0
28/08:30pm 20.1 18.9 9.7 51 5.6 E 6 6 3 3 1011.3 1011.1 0.0
28/08:00pm 20.4 18.6 9.6 50 5.8 ESE 9 13 5 7 1011.1 1010.9 0.0
28/07:30pm 21.2 19.5 9.8 48 6.2 SE 9 11 5 6 1011.1 1010.9 0.0
28/07:00pm 22.6 22.0 9.0 42 7.3 S 2 11 1 6 1011.0 1010.8 0.0
28/06:30pm 23.5 22.4 8.4 38 8.1 S 4 9 2 5 1010.9 1010.7 0.0
28/06:00pm 23.8 21.4 8.6 38 8.2 SSE 11 19 6 10 1010.7 1010.5 0.0
28/05:30pm 24.4 22.2 8.0 35 8.7 WNW 9 17 5 9 1010.8 1010.6 0.0
28/05:00pm 24.3 21.2 7.4 34 8.9 WNW 13 20 7 11 1011.0 1010.8 0.0
28/04:30pm 24.2 21.3 8.2 36 8.5 W 13 20 7 11 1011.2 1011.0 0.0
28/04:00pm 24.1 21.6 8.1 36 8.5 WNW 11 19 6 10 1011.6 1011.4 0.0
28/03:30pm 23.3 20.2 7.4 36 8.3 N 13 22 7 12 1011.7 1011.5 0.0
28/03:00pm 23.3 20.7 7.8 37 8.2 NNW 11 19 6 10 1012.0 1011.8 0.0
28/02:30pm 22.4 19.3 7.4 38 7.8 W 13 20 7 11 1012.4 1012.2 0.0
28/02:00pm 22.2 20.1 8.3 41 7.3 NNW 9 22 5 12 1012.8 1012.7 0.0
28/01:30pm 21.9 20.2 8.4 42 7.1 NNW 7 11 4 6 1013.2 1013.1 0.0
28/01:00pm 21.5 19.9 8.7 44 6.8 NNW 7 13 4 7 1013.5 1013.4 0.0
28/12:30pm 20.1 17.3 8.4 47 6.1 W 13 19 7 10 1014.0 1013.9 0.0
28/12:00pm 19.5 16.6 8.2 48 5.9 WSW 13 20 7 11 1014.4 1014.3 0.0
28/11:30am 19.1 16.2 8.1 49 5.7 WNW 13 17 7 9 1014.7 1014.6 0.0
28/11:00am 18.5 16.0 9.6 56 4.7 WNW 13 19 7 10 1014.9 1014.8 0.0
28/10:30am 18.4 16.1 10.3 59 4.3 WNW 13 19 7 10 1015.4 1015.2 0.0
28/10:00am 17.2 14.8 9.9 62 3.9 WNW 13 20 7 11 1015.4 1015.2 0.0
28/09:30am 16.4 14.1 10.5 68 3.1 NW 13 19 7 10 1015.0 1014.9 0.0
28/09:00am 14.5 13.1 10.9 79 1.9 NNW 9 13 5 7 1015.0 1014.9 2.2
28/08:30am 12.6 10.8 10.8 89 0.9 NNW 11 13 6 7 1014.7 1014.6 2.2
28/08:00am 11.1 9.0 9.9 92 0.6 NNW 11 15 6 8 1014.7 1014.6 2.2
28/07:30am 10.8 7.9 9.7 93 0.6 NNW 15 17 8 9 1014.5 1014.4 2.2
28/07:00am 10.4 7.8 9.2 92 0.6 NNW 13 13 7 7 1014.4 1014.3 2.2
28/06:30am 10.9 8.7 9.5 91 0.7 NW 11 13 6 7 1014.0 1013.9 2.2
28/06:00am 11.2 9.1 9.6 90 0.8 NNW 11 13 6 7 1013.8 1013.7 2.2
28/05:30am 11.3 8.8 9.7 90 0.8 N 13 15 7 8 1013.6 1013.5 2.2
28/05:00am 11.6 9.1 9.7 88 1.0 NNW 13 15 7 8 1013.5 1013.4 2.2
28/04:30am 11.9 9.7 9.5 85 1.2 NNW 11 15 6 8 1013.4 1013.3 2.2
28/04:00am 11.8 9.7 9.9 88 1.0 NNW 11 13 6 7 1013.6 1013.5 2.2
28/03:30am 12.2 9.8 10.1 87 1.1 NNW 13 15 7 8 1013.7 1013.6 2.2
28/03:00am 12.4 10.1 10.5 88 1.0 N 13 15 7 8 1013.6 1013.5 2.2
28/02:30am 12.7 9.7 10.8 88 1.0 NNW 17 19 9 10 1013.7 1013.6 2.2
28/02:00am 12.6 10.3 10.5 87 1.1 NNW 13 15 7 8 1013.9 1013.8 2.2
28/01:30am 12.9 11.0 10.6 86 1.2 N 11 13 6 7 1013.7 1013.6 2.2
28/01:00am 13.0 10.8 10.9 87 1.1 NNW 13 15 7 8 1013.8 1013.7 2.2
28/12:30am 12.7 10.9 10.8 88 1.0 N 11 13 6 7 1014.0 1013.9 2.2
28/12:00am 13.1 11.3 11.0 87 1.1 NNW 11 15 6 8 1014.1 1014.0 2.2
 
Date/Time
EDT
Temp
°C
App
Temp
°C
Dew
Point
°C
Rel
Hum
%
Delta-T
°C
Wind Press
QNH
hPa
Press
MSL
hPa
Rain since
9am
mm
Dir  Spd
km/h
Gust
km/h
Spd
kts
Gust
kts
27/11:30pm 13.3 11.5 11.0 86 1.2 NNW 11 13 6 7 1013.9 1013.8 2.2
27/11:00pm 14.2 13.4 11.2 82 1.6 NW 6 9 3 5 1014.0 1013.9 2.2
27/10:30pm 15.3 14.0 11.3 77 2.1 NW 9 11 5 6 1013.9 1013.8 2.2
27/10:00pm 15.3 15.3 11.1 76 2.2 N 2 7 1 4 1013.4 1013.3 2.2
27/09:30pm 15.0 15.0 11.0 77 2.1 NNE 2 6 1 3 1013.1 1013.0 2.2
27/09:00pm 15.8 15.0 11.6 76 2.3 N 7 9 4 5 1012.6 1012.4 2.2
27/08:30pm 16.1 16.3 10.4 69 3.0 CALM 0 0 0 0 1012.4 1012.2 2.2
27/08:00pm 17.0 17.2 10.4 65 3.5 CALM 0 0 0 0 1011.9 1011.7 2.2
27/07:30pm 17.2 16.1 9.9 62 3.9 SW 6 7 3 4 1011.7 1011.5 2.2
27/07:00pm 18.1 15.0 10.2 60 4.2 WSW 17 24 9 13 1011.7 1011.5 2.2
27/06:30pm 19.0 15.5 10.3 57 4.7 SW 19 26 10 14 1011.9 1011.7 2.2
27/06:00pm 19.4 16.0 10.4 56 4.9 W 19 26 10 14 1011.8 1011.6 2.2
27/05:30pm 19.0 14.3 10.8 59 4.5 WNW 26 35 14 19 1011.4 1011.2 2.2
27/05:00pm 18.0 17.6 16.3 90 1.0 W 13 19 7 10 1011.8 1011.6 2.2
27/04:30pm 17.1 14.4 15.6 91 0.9 WSW 24 35 13 19 1011.7 1011.5 2.0
27/04:00pm 17.9 12.3 15.5 86 1.4 WSW 39 52 21 28 1010.3 1010.1 2.0
27/03:30pm 17.3 13.1 15.6 90 1.0 W 32 48 17 26 1009.7 1009.5 1.8
27/03:00pm 18.3 12.6 15.2 82 1.8 WSW 39 57 21 31 1009.1 1008.9 0.8
27/02:53pm 19.0 14.1 15.3 79 2.2 WSW 35 57 19 31 1009.5 1009.3 0.8
27/02:30pm 20.5 14.7 16.1 76 2.6 WSW 41 56 22 30 1008.8 1008.6 0.2
27/02:05pm 20.6 14.8 17.4 82 2.0 WSW 44 63 24 34 1008.3 1008.1 0.2
27/02:00pm 20.7 13.7 16.3 76 2.7 WSW 48 63 26 34 1008.3 1008.1 0.0
27/01:41pm 23.1 16.3 15.9 64 4.4 WSW 46 69 25 37 1007.2 1007.0 0.0
27/01:35pm 25.6 22.1 15.6 54 6.1 WNW 28 65 15 35 1007.1 1006.9 0.0
27/01:34pm 28.2 25.6 15.8 47 7.6 NW 24 57 13 31 1006.9 1006.7 0.0
27/01:30pm 30.6 28.2 15.5 40 9.4 NNW 22 30 12 16 1005.9 1005.7 0.0
27/01:02pm 30.6 25.2 15.1 39 9.5 NNW 37 56 20 30 1005.1 1004.9 0.0
27/01:00pm 30.5 24.6 14.6 38 9.7 NNW 39 56 21 30 1004.9 1004.7 0.0
27/12:30pm 30.4 23.3 14.1 37 9.9 N 44 69 24 37 1003.5 1003.3 0.0
27/12:00pm 30.3 21.5 14.4 38 9.7 N 54 72 29 39 1003.4 1003.2 0.0
27/11:30am 30.1 21.2 14.2 38 9.6 N 54 74 29 40 1003.9 1003.7 0.0
27/11:00am 29.4 20.7 14.8 41 8.9 N 54 78 29 42 1003.9 1003.7 0.0
27/10:30am 28.3 22.0 14.5 43 8.3 N 41 63 22 34 1004.4 1004.2 0.0
27/10:00am 27.6 20.0 14.6 45 7.9 N 48 67 26 36 1004.3 1004.1 0.0
27/09:30am 27.1 20.4 14.5 46 7.6 N 43 63 23 34 1004.8 1004.6 0.0
27/09:07am 26.2 22.3 14.3 48 7.1 NNE 28 48 15 26 1005.2 1005.0 0.0
27/09:00am 25.6 21.8 14.7 51 6.6 NNE 28 43 15 23 1005.4 1005.2 0.0
27/08:38am 25.0 21.1 14.5 52 6.3 NNE 28 50 15 27 1005.4 1005.2 0.0
27/08:30am 24.6 21.2 14.7 54 5.9 NNE 26 44 14 24 1005.6 1005.4 0.0
27/08:00am 24.4 20.6 14.8 55 5.8 NNE 28 46 15 25 1005.7 1005.5 0.0
27/07:30am 24.6 19.7 14.4 53 6.1 N 33 43 18 23 1005.5 1005.3 0.0
27/07:00am 24.5 19.9 14.6 54 5.9 N 32 46 17 25 1005.5 1005.3 0.0
27/06:30am 24.3 19.9 15.2 57 5.5 N 32 52 17 28 1005.7 1005.5 0.0
27/06:28am 24.2 20.2 15.1 56 5.5 N 30 48 16 26 1005.7 1005.5 0.0
27/06:00am 23.8 19.7 15.0 57 5.3 N 30 39 16 21 1006.1 1005.9 0.0
27/05:30am 23.5 21.4 15.3 60 4.9 N 20 30 11 16 1006.5 1006.3 0.0
27/05:00am 23.8 20.0 14.8 57 5.4 N 28 37 15 20 1006.7 1006.5 0.0
27/04:30am 23.8 19.3 13.9 54 5.8 N 30 37 16 20 1007.1 1006.9 0.0
27/04:00am 24.1 20.0 13.9 53 6.0 N 28 39 15 21 1006.9 1006.7 0.0
27/03:30am 23.5 19.0 13.9 55 5.6 N 30 43 16 23 1007.3 1007.1 0.0
27/03:00am 23.0 19.2 13.5 55 5.5 N 26 35 14 19 1008.1 1007.9 0.0
27/02:30am 22.6 19.8 14.4 60 4.8 N 22 32 12 17 1008.4 1008.2 0.0
27/02:00am 22.5 20.0 15.1 63 4.4 N 22 32 12 17 1008.6 1008.4 0.0
27/01:30am 18.7 20.1 17.9 95 0.5 NNE 7 9 4 5 1009.4 1009.2 0.0
27/01:00am 18.8 20.0 18.3 97 0.3 N 9 11 5 6 1010.2 1010.0 0.0
27/12:30am 18.4 19.5 18.1 98 0.2 ENE 9 13 5 7 1010.2 1010.0 0.0
27/12:00am 18.7 20.4 18.0 96 0.4 N 6 7 3 4 1010.8 1010.6 0.0
 
Date/Time
EDT
Temp
°C
App
Temp
°C
Dew
Point
°C
Rel
Hum
%
Delta-T
°C
Wind Press
QNH
hPa
Press
MSL
hPa
Rain since
9am
mm
Dir  Spd
km/h
Gust
km/h
Spd
kts
Gust
kts
26/11:30pm 18.8 19.7 18.3 97 0.3 N 11 11 6 6 1011.2 1011.0 0.0
26/11:00pm 19.1 19.9 18.1 94 0.6 N 11 13 6 7 1011.6 1011.4 0.0
26/10:30pm 19.3 20.2 18.3 94 0.6 N 11 13 6 7 1011.9 1011.7 0.0
26/10:00pm 19.4 21.1 18.4 94 0.6 N 7 9 4 5 1012.1 1011.9 0.0
26/09:30pm 20.1 23.2 18.6 91 0.9 CALM 0 0 0 0 1012.2 1012.0 0.0
26/09:00pm 20.2 21.9 18.0 87 1.4 S 6 6 3 3 1012.3 1012.1 0.0
26/08:30pm 20.8 21.5 18.0 84 1.7 SSW 11 13 6 7 1012.1 1011.9 0.0
26/08:00pm 20.9 21.4 17.5 81 2.1 SW 11 13 6 7 1012.2 1012.0 0.0
26/07:30pm 21.7 21.8 17.5 77 2.6 SSW 13 15 7 8 1011.8 1011.6 0.0
26/07:00pm 22.7 22.5 17.6 73 3.2 S 15 20 8 11 1011.8 1011.6 0.0
26/06:30pm 23.5 23.0 17.7 70 3.6 S 17 24 9 13 1011.7 1011.5 0.0
26/06:00pm 24.5 24.1 18.0 67 4.1 S 17 20 9 11 1011.6 1011.4 0.0
26/05:30pm 25.1 24.7 18.1 65 4.4 S 17 22 9 12 1011.6 1011.4 0.0
26/05:00pm 24.6 24.4 17.6 65 4.4 S 15 20 8 11 1011.6 1011.4 0.0
26/04:30pm 24.7 24.0 17.4 64 4.6 S 17 22 9 12 1011.6 1011.4 0.0

Latest Capital City Observations: Canberra | Sydney | Melbourne | Brisbane | Adelaide | Perth | Hobart | Darwin

Other Formats:

Comma delimited format used in spreadsheet applications
http://www.bom.gov.au/fwo/IDV60901/IDV60901.95866.axf

JavaScript Object Notation format (JSON) in row-major order
http://www.bom.gov.au/fwo/IDV60901/IDV60901.95866.json